Time;durP1;ratioP1;P1;durP2;ratioP2;P2;SDS_P1;SDS_P2;PMS_P1;PMS_P2;Temp;Humidity;BMP_temperature;BMP_pressure;BME280_temperature;BME280_humidity;BME280_pressure;Samples;Min_cycle;Max_cycle;Signal;HPM_P1;HPM_P2
2022/04/25 00:01:02;;;;;;;11.60;10.17;;;;;;;;;;5130042;27;20981;-74
2022/04/25 00:03:30;;;;;;;10.83;9.83;;;;;;;;;;5131936;28;20448;-75
2022/04/25 00:05:57;;;;;;;9.80;8.90;;;;;;;;;;5132079;28;21025;-74
2022/04/25 00:08:24;;;;;;;11.07;9.83;;;;;;;;;;5134252;27;20441;-75
2022/04/25 00:10:51;;;;;;;10.83;9.83;;;;;;;;;;5137070;27;20453;-75
2022/04/25 00:13:18;;;;;;;10.70;9.70;;;;;;;;;;5136332;27;20976;-75
2022/04/25 00:15:46;;;;;;;9.43;8.50;;;;;;;;;;5138696;27;20441;-74
2022/04/25 00:18:14;;;;;;;11.13;10.00;;;;;;;;;;5138572;27;20449;-75
2022/04/25 00:20:41;;;;;;;10.07;9.07;;;;;;;;;;5134085;27;20476;-74
2022/04/25 00:23:08;;;;;;;11.07;9.97;;;;;;;;;;5132693;27;20461;-75
2022/04/25 00:25:37;;;;;;;10.50;9.40;;;;;;;;;;5134616;27;20462;-74
2022/04/25 00:28:05;;;;;;;10.27;9.27;;;;;;;;;;5135967;27;20437;-74
2022/04/25 00:30:32;;;;;;;16.50;13.90;;;;;;;;;;5136163;27;20518;-74
2022/04/25 00:33:00;;;;;;;19.53;17.53;;;;;;;;;;5135015;27;20918;-75
2022/04/25 00:35:28;;;;;;;21.93;19.73;;;;;;;;;;5134962;27;20512;-75
2022/04/25 00:37:56;;;;;;;24.77;22.43;;;;;;;;;;5136072;27;20922;-75
2022/04/25 00:40:24;;;;;;;27.00;24.40;;;;;;;;;;5137654;27;20981;-75
2022/04/25 00:42:52;;;;;;;26.07;23.17;;;;;;;;;;5134924;27;20520;-75
2022/04/25 00:45:19;;;;;;;26.40;23.67;;;;;;;;;;5133133;27;20808;-75
2022/04/25 00:47:47;;;;;;;27.27;24.40;;;;;;;;;;5134985;27;20441;-75
2022/04/25 00:50:14;;;;;;;26.93;24.20;;;;;;;;;;5135574;27;21124;-74
2022/04/25 00:52:43;;;;;;;29.00;23.90;;;;;;;;;;5136013;27;20465;-75
2022/04/25 00:55:12;;;;;;;27.83;24.90;;;;;;;;;;5136288;27;20441;-74
2022/04/25 00:57:39;;;;;;;26.07;23.53;;;;;;;;;;5134507;27;20437;-75
2022/04/25 01:00:07;;;;;;;24.37;21.80;;;;;;;;;;5136802;27;20956;-74
2022/04/25 01:02:35;;;;;;;24.63;22.13;;;;;;;;;;5137544;27;20444;-75
2022/04/25 01:05:04;;;;;;;24.13;20.20;;;;;;;;;;5135211;27;20804;-75
2022/04/25 01:07:31;;;;;;;20.00;18.00;;;;;;;;;;5132995;27;20517;-75
2022/04/25 01:10:00;;;;;;;19.60;17.50;;;;;;;;;;5134456;27;20440;-75
2022/04/25 01:12:28;;;;;;;21.42;16.65;;;;;;;;;;5135130;27;20871;-75
2022/04/25 01:14:57;;;;;;;20.38;16.45;;;;;;;;;;5135324;27;20223;-74
2022/04/25 01:17:24;;;;;;;21.10;16.02;;;;;;;;;;5135604;27;20203;-75
2022/04/25 01:19:51;;;;;;;17.30;14.63;;;;;;;;;;5135561;27;20223;-74
2022/04/25 01:22:20;;;;;;;14.95;13.02;;;;;;;;;;5136151;27;20224;-75
2022/04/25 01:27:31;;;;;;;16.63;13.90;;;;;;;;;;5134266;27;20198;-76
2022/04/25 01:29:58;;;;;;;19.35;15.27;;;;;;;;;;5132740;27;20202;-82
2022/04/25 01:32:25;;;;;;;20.35;16.05;;;;;;;;;;5133957;27;20208;-80
2022/04/25 01:34:53;;;;;;;22.17;19.77;;;;;;;;;;5133776;27;20199;-80
2022/04/25 01:37:21;;;;;;;20.83;17.73;;;;;;;;;;5134748;27;20653;-79
2022/04/25 01:39:50;;;;;;;21.58;17.90;;;;;;;;;;5135225;27;20245;-79
2022/04/25 01:42:18;;;;;;;16.95;14.35;;;;;;;;;;5133667;27;20312;-79
2022/04/25 01:44:45;;;;;;;15.30;13.70;;;;;;;;;;5135577;27;20200;-78
2022/04/25 01:47:12;;;;;;;15.95;13.38;;;;;;;;;;5136970;27;20196;-78
2022/04/25 01:49:39;;;;;;;15.77;13.23;;;;;;;;;;5135300;27;20196;-78
2022/04/25 01:52:08;;;;;;;14.52;12.77;;;;;;;;;;5132091;27;20210;-78
2022/04/25 01:54:35;;;;;;;13.93;12.43;;;;;;;;;;5132640;27;20716;-78
2022/04/25 01:57:04;;;;;;;19.92;14.07;;;;;;;;;;5134504;27;20203;-78
2022/04/25 01:59:31;;;;;;;15.27;13.63;;;;;;;;;;5134406;27;20200;-78
2022/04/25 02:01:59;;;;;;;14.57;13.05;;;;;;;;;;5134627;27;20380;-77
2022/04/25 02:04:26;;;;;;;14.60;12.95;;;;;;;;;;5135006;27;20192;-78
2022/04/25 02:06:53;;;;;;;14.90;13.32;;;;;;;;;;5134923;27;20557;-77
2022/04/25 02:09:21;;;;;;;13.25;11.85;;;;;;;;;;5136350;27;20199;-77
2022/04/25 02:11:48;;;;;;;12.52;10.93;;;;;;;;;;5135028;27;21114;-78
2022/04/25 02:14:17;;;;;;;12.77;11.45;;;;;;;;;;5131827;27;20532;-79
2022/04/25 02:16:44;;;;;;;13.43;10.88;;;;;;;;;;5132054;27;20188;-78
2022/04/25 02:19:12;;;;;;;14.13;11.27;;;;;;;;;;5134064;27;20199;-79
2022/04/25 02:21:39;;;;;;;14.75;12.85;;;;;;;;;;5133829;27;20238;-78
2022/04/25 02:24:07;;;;;;;12.90;11.50;;;;;;;;;;5133984;27;20672;-79
2022/04/25 02:26:34;;;;;;;12.98;11.20;;;;;;;;;;5134104;27;20228;-79
2022/04/25 02:29:01;;;;;;;14.73;11.98;;;;;;;;;;5134460;27;20199;-80
2022/04/25 02:31:30;;;;;;;13.93;12.48;;;;;;;;;;5135276;27;20216;-79
2022/04/25 02:33:57;;;;;;;14.20;12.70;;;;;;;;;;5135575;27;20202;-80
2022/04/25 02:36:25;;;;;;;14.07;12.00;;;;;;;;;;5131403;27;20199;-80
2022/04/25 02:38:52;;;;;;;14.50;11.65;;;;;;;;;;5131641;27;20188;-78
2022/04/25 02:41:19;;;;;;;13.00;10.60;;;;;;;;;;5133014;27;20222;-80
2022/04/25 02:43:47;;;;;;;13.57;11.73;;;;;;;;;;5133363;27;20200;-79
2022/04/25 02:46:15;;;;;;;15.07;11.27;;;;;;;;;;5133878;27;20290;-79
2022/04/25 02:48:44;;;;;;;11.77;10.10;;;;;;;;;;5134007;27;20196;-78
2022/04/25 02:51:11;;;;;;;15.30;12.02;;;;;;;;;;5133278;27;20219;-80
2022/04/25 02:53:39;;;;;;;13.85;11.75;;;;;;;;;;5134612;27;20557;-79
2022/04/25 02:56:07;;;;;;;12.25;10.00;;;;;;;;;;5134398;27;20212;-78
2022/04/25 02:58:35;;;;;;;10.57;9.48;;;;;;;;;;5131433;27;20188;-79
2022/04/25 03:01:04;;;;;;;10.18;9.10;;;;;;;;;;5130707;27;20297;-78
2022/04/25 03:03:32;;;;;;;10.20;9.13;;;;;;;;;;5132697;27;20199;-80
2022/04/25 03:06:01;;;;;;;9.98;8.57;;;;;;;;;;5132902;27;20220;-79
2022/04/25 03:08:29;;;;;;;8.40;7.38;;;;;;;;;;5133411;27;20225;-80
2022/04/25 03:10:57;;;;;;;8.48;7.57;;;;;;;;;;5133662;27;20219;-80
2022/04/25 03:13:25;;;;;;;10.93;9.32;;;;;;;;;;5132857;27;20219;-78
2022/04/25 03:15:52;;;;;;;10.48;8.35;;;;;;;;;;5134953;27;20206;-81
2022/04/25 03:18:20;;;;;;;10.30;8.02;;;;;;;;;;5133767;27;20561;-80
2022/04/25 03:20:48;;;;;;;13.63;9.70;;;;;;;;;;5131636;27;20230;-80
2022/04/25 03:23:17;;;;;;;11.60;10.15;;;;;;;;;;5129339;27;20188;-79
2022/04/25 03:25:44;;;;;;;11.52;9.35;;;;;;;;;;5132236;27;20220;-79
2022/04/25 03:28:11;;;;;;;10.88;9.77;;;;;;;;;;5132488;27;20204;-79
2022/04/25 03:30:41;;;;;;;8.60;7.70;;;;;;;;;;5132902;27;20238;-80
2022/04/25 03:33:11;;;;;;;9.90;8.90;;;;;;;;;;5133391;27;20200;-81
2022/04/25 03:35:38;;;;;;;8.65;7.60;;;;;;;;;;5132614;27;20290;-78
2022/04/25 03:38:06;;;;;;;9.48;7.90;;;;;;;;;;5133119;27;20203;-80
2022/04/25 03:40:35;;;;;;;10.23;8.98;;;;;;;;;;5134548;27;20684;-80
2022/04/25 03:43:02;;;;;;;9.48;8.38;;;;;;;;;;5131134;27;20208;-80
2022/04/25 03:45:30;;;;;;;8.88;7.90;;;;;;;;;;5129901;27;20213;-80
2022/04/25 03:47:57;;;;;;;9.88;8.35;;;;;;;;;;5131352;27;20196;-79
2022/04/25 03:50:26;;;;;;;8.00;7.20;;;;;;;;;;5132274;27;20191;-79
2022/04/25 03:52:54;;;;;;;10.80;9.70;;;;;;;;;;5132654;27;20282;-79
2022/04/25 03:58:04;;;;;;;12.45;10.32;;;;;;;;;;5132180;27;20220;-79
2022/04/25 04:00:31;;;;;;;11.18;9.35;;;;;;;;;;5133554;27;20637;-79
2022/04/25 04:02:59;;;;;;;13.70;10.50;;;;;;;;;;5133237;28;20222;-78
2022/04/25 04:05:26;;;;;;;16.33;12.27;;;;;;;;;;5132025;28;20564;-77
2022/04/25 04:07:53;;;;;;;12.95;10.90;;;;;;;;;;5129799;28;20218;-78
2022/04/25 04:10:21;;;;;;;12.50;10.07;;;;;;;;;;5130729;28;20595;-80
2022/04/25 04:12:48;;;;;;;15.50;13.10;;;;;;;;;;5132323;28;20199;-81
2022/04/25 04:15:18;;;;;;;20.25;14.75;;;;;;;;;;5132120;28;20679;-78
2022/04/25 04:17:47;;;;;;;20.48;15.85;;;;;;;;;;5132616;28;20199;-80
2022/04/25 04:20:14;;;;;;;17.13;13.70;;;;;;;;;;5132171;28;20195;-80
2022/04/25 04:22:42;;;;;;;14.52;12.00;;;;;;;;;;5133377;28;20216;-81
2022/04/25 04:25:11;;;;;;;19.20;14.77;;;;;;;;;;5134147;28;20226;-81
2022/04/25 04:27:39;;;;;;;18.48;14.50;;;;;;;;;;5132493;28;20558;-84
2022/04/25 04:30:10;;;;;;;16.15;13.38;;;;;;;;;;5129814;28;20191;-82
2022/04/25 04:32:40;;;;;;;18.10;13.88;;;;;;;;;;5130634;28;20192;-79
2022/04/25 04:35:09;;;;;;;15.07;12.55;;;;;;;;;;5131034;28;20200;-81
2022/04/25 04:37:37;;;;;;;17.00;13.57;;;;;;;;;;5132204;28;20196;-81
2022/04/25 04:42:47;;;;;;;12.75;11.45;;;;;;;;;;5116450;28;20218;-80
2022/04/25 04:45:15;;;;;;;15.88;12.10;;;;;;;;;;5133275;28;20279;-78
2022/04/25 04:47:43;;;;;;;17.55;13.38;;;;;;;;;;5134223;28;20200;-82
2022/04/25 04:50:14;;;;;;;17.45;13.52;;;;;;;;;;5132544;28;20226;-84
2022/04/25 04:52:42;;;;;;;21.30;15.38;;;;;;;;;;5132500;27;20181;-82
2022/04/25 04:55:10;;;;;;;25.95;18.70;;;;;;;;;;5134682;27;20605;-81
2022/04/25 04:57:38;;;;;;;28.27;20.70;;;;;;;;;;5139495;27;20192;-82
2022/04/25 05:00:06;;;;;;;29.30;21.35;;;;;;;;;;5139117;27;20287;-80
2022/04/25 05:02:33;;;;;;;30.35;19.67;;;;;;;;;;5136721;27;20238;-82
2022/04/25 05:05:02;;;;;;;27.60;19.77;;;;;;;;;;5136538;27;20199;-82
2022/04/25 05:07:29;;;;;;;26.25;19.88;;;;;;;;;;5136532;27;20548;-83
2022/04/25 05:09:56;;;;;;;26.05;18.48;;;;;;;;;;5137548;27;20656;-83
2022/04/25 05:12:26;;;;;;;26.55;17.88;;;;;;;;;;5137379;27;20215;-83
2022/04/25 05:14:53;;;;;;;22.58;17.20;;;;;;;;;;5133032;27;20191;-82
2022/04/25 05:17:21;;;;;;;23.17;17.42;;;;;;;;;;5133290;27;20192;-82
2022/04/25 05:19:48;;;;;;;23.08;15.10;;;;;;;;;;5134152;27;20196;-78
2022/04/25 05:22:18;;;;;;;22.30;16.65;;;;;;;;;;5134255;27;20735;-82
2022/04/25 05:24:45;;;;;;;26.40;17.55;;;;;;;;;;5135120;27;20200;-80
2022/04/25 05:27:12;;;;;;;21.65;17.55;;;;;;;;;;5134864;27;20222;-83
2022/04/25 05:29:39;;;;;;;24.80;18.02;;;;;;;;;;5134439;27;20200;-81
2022/04/25 05:32:07;;;;;;;26.98;19.58;;;;;;;;;;5136654;27;20215;-79
2022/04/25 05:34:35;;;;;;;25.23;19.00;;;;;;;;;;5135629;27;20199;-81
2022/04/25 05:37:02;;;;;;;26.45;17.98;;;;;;;;;;5133624;27;20199;-78
2022/04/25 05:39:32;;;;;;;25.35;19.10;;;;;;;;;;5132389;27;20211;-80
2022/04/25 05:42:00;;;;;;;33.90;21.93;;;;;;;;;;5134241;27;20219;-84
2022/04/25 05:44:27;;;;;;;35.78;23.77;;;;;;;;;;5133628;27;20442;-83
2022/04/25 05:46:56;;;;;;;31.90;21.40;;;;;;;;;;5134950;27;20576;-79
2022/04/25 05:52:05;;;;;;;26.67;18.53;;;;;;;;;;5134160;27;20277;-82
2022/04/25 05:54:37;;;;;;;21.15;16.50;;;;;;;;;;5136288;27;20910;-82
2022/04/25 05:57:04;;;;;;;26.75;16.48;;;;;;;;;;5136239;27;20196;-81
2022/04/25 05:59:31;;;;;;;19.38;15.48;;;;;;;;;;5133591;27;20211;-84
2022/04/25 06:01:58;;;;;;;21.30;15.13;;;;;;;;;;5131933;27;20207;-81
2022/04/25 06:04:26;;;;;;;21.75;16.48;;;;;;;;;;5133122;27;20444;-83
2022/04/25 06:09:43;;;;;;;26.57;20.27;;;;;;;;;;5122931;27;20448;-84
2022/04/25 06:12:10;;;;;;;22.97;16.50;;;;;;;;;;5126653;27;20453;-81
2022/04/25 06:14:38;;;;;;;21.73;16.27;;;;;;;;;;5133900;27;20535;-82
2022/04/25 06:17:05;;;;;;;23.83;17.43;;;;;;;;;;5136389;27;20438;-82
2022/04/25 06:19:32;;;;;;;19.90;15.07;;;;;;;;;;5136261;27;20438;-83
2022/04/25 06:22:00;;;;;;;17.90;14.60;;;;;;;;;;5133718;27;20917;-81
2022/04/25 06:24:27;;;;;;;17.50;13.20;;;;;;;;;;5131726;27;20438;-76
2022/04/25 06:26:57;;;;;;;16.80;13.83;;;;;;;;;;5132530;27;20511;-79
2022/04/25 06:29:25;;;;;;;23.05;18.63;;;;;;;;;;5132671;27;20440;-77
2022/04/25 06:31:52;;;;;;;18.83;16.43;;;;;;;;;;5133649;27;20231;-80
2022/04/25 06:34:19;;;;;;;19.00;14.60;;;;;;;;;;5134000;27;20437;-77
2022/04/25 06:36:48;;;;;;;25.17;18.50;;;;;;;;;;5134021;27;20433;-78
2022/04/25 06:39:15;;;;;;;25.13;19.80;;;;;;;;;;5133034;27;20449;-77
2022/04/25 06:41:42;;;;;;;27.23;19.70;;;;;;;;;;5131400;27;20445;-77
2022/04/25 06:44:11;;;;;;;25.60;20.07;;;;;;;;;;5131846;27;20465;-77
2022/04/25 06:46:38;;;;;;;22.77;19.20;;;;;;;;;;5133650;27;20965;-81
2022/04/25 06:51:47;;;;;;;25.90;20.83;;;;;;;;;;5133525;27;20452;-80
2022/04/25 06:54:14;;;;;;;26.70;21.17;;;;;;;;;;5134033;27;20433;-83
2022/04/25 06:56:42;;;;;;;36.47;28.90;;;;;;;;;;5134289;27;20461;-82
2022/04/25 06:59:10;;;;;;;33.27;26.50;;;;;;;;;;5135443;27;20444;-85
2022/04/25 07:01:39;;;;;;;30.40;24.60;;;;;;;;;;5134747;27;20453;-80
2022/04/25 07:04:07;;;;;;;34.57;27.03;;;;;;;;;;5130996;27;20465;-81
2022/04/25 07:06:34;;;;;;;34.67;28.27;;;;;;;;;;5131184;27;20436;-78
2022/04/25 07:09:01;;;;;;;40.30;31.00;;;;;;;;;;5133000;27;20449;-80
2022/04/25 07:11:28;;;;;;;36.70;29.87;;;;;;;;;;5132975;27;20804;-79
2022/04/25 07:13:55;;;;;;;32.80;27.97;;;;;;;;;;5133278;27;20438;-78
2022/04/25 07:16:25;;;;;;;37.70;31.07;;;;;;;;;;5133648;27;20551;-76
2022/04/25 07:18:52;;;;;;;40.47;31.50;;;;;;;;;;5133476;27;20856;-80
2022/04/25 07:29:24;;;;;;;23.97;21.47;;;;;;;;;;5130532;27;20969;-81
2022/04/25 07:31:52;;;;;;;26.70;22.03;;;;;;;;;;5131634;27;20452;-80
2022/04/25 07:34:20;;;;;;;25.10;22.50;;;;;;;;;;5132821;27;20444;-80
2022/04/25 07:36:51;;;;;;;23.77;19.27;;;;;;;;;;5132934;27;20806;-81
2022/04/25 07:39:18;;;;;;;19.53;17.50;;;;;;;;;;5133514;27;20445;-87
2022/04/25 07:41:46;;;;;;;17.63;15.77;;;;;;;;;;5133358;27;20847;-80
2022/04/25 07:44:13;;;;;;;21.77;18.97;;;;;;;;;;5134479;27;20986;-80
2022/04/25 07:46:41;;;;;;;25.63;20.30;;;;;;;;;;5133922;27;20445;-78
2022/04/25 07:49:10;;;;;;;22.13;19.70;;;;;;;;;;5129842;27;20438;-79
2022/04/25 07:51:37;;;;;;;24.53;21.70;;;;;;;;;;5130868;27;20461;-80
2022/04/25 07:54:05;;;;;;;24.90;22.17;;;;;;;;;;5132336;27;20439;-80
2022/04/25 07:56:32;;;;;;;27.73;23.90;;;;;;;;;;5132413;27;20473;-81
2022/04/25 07:59:01;;;;;;;23.20;20.40;;;;;;;;;;5132695;27;20437;-81
2022/04/25 08:01:28;;;;;;;23.27;20.80;;;;;;;;;;5132767;27;20464;-81
2022/04/25 08:03:56;;;;;;;21.57;19.10;;;;;;;;;;5132534;28;20473;-80
2022/04/25 08:06:27;;;;;;;22.30;20.03;;;;;;;;;;5134577;28;20437;-79
2022/04/25 08:08:55;;;;;;;21.90;19.57;;;;;;;;;;5134568;28;20472;-82
2022/04/25 08:11:23;;;;;;;23.90;21.27;;;;;;;;;;5128583;28;20521;-79
2022/04/25 08:19:13;;;;;;;26.67;22.00;;;;;;;;;;5131866;28;20918;-81
2022/04/25 08:21:41;;;;;;;25.63;22.30;;;;;;;;;;5132390;28;20981;-79
2022/04/25 08:24:09;;;;;;;24.47;21.90;;;;;;;;;;5132688;28;20512;-79
2022/04/25 08:26:36;;;;;;;28.23;23.43;;;;;;;;;;5131101;28;20819;-79
2022/04/25 08:29:04;;;;;;;26.30;23.47;;;;;;;;;;5136510;27;20516;-80
2022/04/25 08:31:31;;;;;;;25.00;20.60;;;;;;;;;;5138445;27;20461;-80
2022/04/25 08:33:58;;;;;;;27.00;23.33;;;;;;;;;;5134171;27;20808;-81
2022/04/25 08:36:26;;;;;;;25.33;22.17;;;;;;;;;;5133873;27;20851;-78
2022/04/25 08:38:55;;;;;;;24.80;22.23;;;;;;;;;;5135851;27;20498;-80
2022/04/25 08:41:25;;;;;;;25.47;20.57;;;;;;;;;;5135691;27;20457;-81
2022/04/25 08:43:56;;;;;;;24.90;21.53;;;;;;;;;;5136525;27;20476;-83
2022/04/25 08:46:28;;;;;;;24.10;21.67;;;;;;;;;;5136778;27;20448;-80
2022/04/25 08:48:56;;;;;;;21.93;19.57;;;;;;;;;;5135950;27;20471;-84
2022/04/25 08:51:23;;;;;;;23.57;21.17;;;;;;;;;;5137968;27;20815;-78
2022/04/25 08:53:52;;;;;;;24.23;19.90;;;;;;;;;;5137741;27;20437;-78
2022/04/25 08:56:22;;;;;;;22.50;20.10;;;;;;;;;;5134724;27;20438;-79
2022/04/25 08:58:50;;;;;;;23.30;20.80;;;;;;;;;;5133325;27;21006;-79
2022/04/25 09:01:20;;;;;;;22.57;19.97;;;;;;;;;;5134975;27;20457;-82
2022/04/25 09:03:47;;;;;;;24.00;20.70;;;;;;;;;;5135242;27;20473;-82
2022/04/25 09:06:14;;;;;;;21.50;19.20;;;;;;;;;;5135715;27;20814;-81
2022/04/25 09:08:43;;;;;;;23.10;19.73;;;;;;;;;;5136409;27;20433;-81
2022/04/25 09:13:53;;;;;;;22.87;18.50;;;;;;;;;;5116627;28;20423;-85
2022/04/25 09:16:20;;;;;;;20.53;17.93;;;;;;;;;;5117029;28;20441;-83
2022/04/25 09:18:48;;;;;;;20.70;18.60;;;;;;;;;;5127332;27;20442;-82
2022/04/25 09:21:15;;;;;;;18.57;16.50;;;;;;;;;;5132947;27;20450;-81
2022/04/25 09:23:43;;;;;;;19.07;17.07;;;;;;;;;;5134387;27;20469;-78
2022/04/25 09:26:16;;;;;;;18.33;16.23;;;;;;;;;;5135159;27;20465;-81
2022/04/25 09:28:47;;;;;;;17.23;15.47;;;;;;;;;;5135567;27;20438;-81
2022/04/25 09:31:16;;;;;;;18.27;16.07;;;;;;;;;;5134184;27;20810;-81
2022/04/25 09:33:44;;;;;;;18.27;16.40;;;;;;;;;;5133004;27;20480;-79
2022/04/25 09:36:11;;;;;;;14.00;12.70;;;;;;;;;;5136904;27;20965;-81
2022/04/25 09:38:39;;;;;;;15.73;14.07;;;;;;;;;;5135813;27;20965;-84
2022/04/25 09:41:10;;;;;;;16.07;14.50;;;;;;;;;;5133160;27;20510;-81
2022/04/25 09:43:39;;;;;;;15.30;13.70;;;;;;;;;;5131884;27;20484;-82
2022/04/25 09:46:07;;;;;;;12.30;11.10;;;;;;;;;;5132399;27;20444;-76
2022/04/25 09:48:37;;;;;;;12.00;10.90;;;;;;;;;;5133578;27;20448;-80
2022/04/25 09:51:05;;;;;;;12.80;11.70;;;;;;;;;;5134950;27;20891;-83
2022/04/25 09:53:47;;;;;;;12.40;11.30;;;;;;;;;;5134033;27;20622;-83
2022/04/25 09:56:16;;;;;;;13.57;12.17;;;;;;;;;;5133752;27;20982;-80
2022/04/25 09:58:44;;;;;;;12.33;11.27;;;;;;;;;;5136042;27;20454;-82
2022/04/25 10:01:13;;;;;;;12.17;11.00;;;;;;;;;;5136833;27;20457;-79
2022/04/25 10:03:42;;;;;;;12.60;11.50;;;;;;;;;;5134298;27;20497;-80
2022/04/25 10:06:09;;;;;;;13.80;12.50;;;;;;;;;;5130424;27;20566;-81
2022/04/25 10:08:37;;;;;;;14.50;13.00;;;;;;;;;;5132027;27;20449;-80
2022/04/25 10:11:08;;;;;;;15.43;13.93;;;;;;;;;;5134143;27;20911;-83
2022/04/25 10:13:36;;;;;;;15.53;14.13;;;;;;;;;;5134606;27;20444;-78
2022/04/25 10:16:04;;;;;;;15.47;14.03;;;;;;;;;;5135730;27;20498;-78
2022/04/25 10:18:32;;;;;;;14.57;13.23;;;;;;;;;;5134991;27;20441;-78
2022/04/25 10:21:01;;;;;;;12.70;11.60;;;;;;;;;;5134113;27;20473;-79
2022/04/25 10:23:29;;;;;;;12.77;11.57;;;;;;;;;;5136068;27;20522;-82
2022/04/25 10:25:58;;;;;;;14.10;12.23;;;;;;;;;;5134016;27;20461;-80
2022/04/25 10:28:28;;;;;;;12.30;11.20;;;;;;;;;;5130242;27;20464;-82
2022/04/25 10:31:02;;;;;;;10.93;9.93;;;;;;;;;;5132387;27;20457;-84
2022/04/25 10:33:48;;;;;;;12.50;11.30;;;;;;;;;;5133940;27;20491;-81
2022/04/25 10:36:30;;;;;;;11.90;10.60;;;;;;;;;;5134211;27;20437;-83
2022/04/25 10:39:11;;;;;;;11.27;10.27;;;;;;;;;;5133428;27;20437;-79
2022/04/25 10:44:35;;;;;;;13.20;9.57;;;;;;;;;;5135315;27;20534;-77
2022/04/25 10:47:17;;;;;;;10.57;9.47;;;;;;;;;;5134785;27;20437;-81
2022/04/25 10:49:46;;;;;;;9.10;8.30;;;;;;;;;;5130736;27;20434;-78
2022/04/25 10:52:28;;;;;;;8.53;7.83;;;;;;;;;;5130466;27;20813;-79
2022/04/25 10:55:12;;;;;;;8.90;8.10;;;;;;;;;;5133060;27;20449;-81
2022/04/25 10:57:39;;;;;;;8.57;7.80;;;;;;;;;;5133328;27;20518;-78
2022/04/25 11:00:28;;;;;;;8.10;7.40;;;;;;;;;;5133713;27;20433;-80
2022/04/25 11:03:04;;;;;;;7.37;6.67;;;;;;;;;;5132713;27;20441;-77
2022/04/25 11:05:35;;;;;;;7.60;6.93;;;;;;;;;;5133766;27;20930;-77
2022/04/25 11:08:17;;;;;;;6.87;6.07;;;;;;;;;;5134322;27;20440;-78
2022/04/25 11:10:47;;;;;;;7.40;6.70;;;;;;;;;;5133458;27;20795;-78
2022/04/25 11:13:17;;;;;;;7.57;6.87;;;;;;;;;;5130466;27;20440;-79
2022/04/25 11:15:45;;;;;;;6.87;6.00;;;;;;;;;;5130123;27;20498;-83
2022/04/25 11:18:22;;;;;;;7.17;6.57;;;;;;;;;;5131737;27;20445;-79
2022/04/25 11:20:56;;;;;;;5.70;5.20;;;;;;;;;;5132870;27;20514;-80
2022/04/25 11:23:26;;;;;;;6.30;5.70;;;;;;;;;;5133100;27;20433;-75
2022/04/25 11:25:57;;;;;;;5.90;5.30;;;;;;;;;;5133232;27;21044;-80
2022/04/25 11:28:24;;;;;;;6.60;6.00;;;;;;;;;;5132414;27;20461;-78
2022/04/25 11:31:06;;;;;;;8.50;5.90;;;;;;;;;;5129283;27;20503;-78
2022/04/25 11:33:42;;;;;;;6.43;5.83;;;;;;;;;;5128927;27;21035;-79
2022/04/25 11:36:11;;;;;;;6.93;6.23;;;;;;;;;;5132654;27;20995;-80
2022/04/25 11:41:20;;;;;;;6.30;5.70;;;;;;;;;;5132593;27;20442;-79
2022/04/25 11:43:48;;;;;;;7.90;6.60;;;;;;;;;;5133160;27;20473;-80
2022/04/25 11:46:15;;;;;;;10.30;6.37;;;;;;;;;;5133229;27;20449;-79
2022/04/25 11:48:43;;;;;;;6.73;6.10;;;;;;;;;;5134625;27;20441;-77
2022/04/25 11:51:10;;;;;;;6.90;6.30;;;;;;;;;;5133549;27;20461;-76
2022/04/25 11:53:37;;;;;;;9.73;6.53;;;;;;;;;;5131101;27;20429;-82
2022/04/25 11:56:19;;;;;;;6.90;6.20;;;;;;;;;;5130511;27;20441;-77
2022/04/25 11:58:48;;;;;;;7.43;6.23;;;;;;;;;;5133105;27;20439;-78
2022/04/25 12:01:15;;;;;;;6.87;6.17;;;;;;;;;;5133869;27;21074;-80
2022/04/25 12:03:43;;;;;;;7.37;6.67;;;;;;;;;;5131303;27;20438;-80
2022/04/25 12:06:12;;;;;;;6.43;5.93;;;;;;;;;;5133340;27;20778;-78
2022/04/25 12:16:44;;;;;;;4.90;4.40;;;;;;;;;;5128849;28;20918;-79
2022/04/25 12:19:12;;;;;;;5.10;4.70;;;;;;;;;;5130939;28;20438;-76
2022/04/25 12:21:44;;;;;;;8.80;6.70;;;;;;;;;;5132400;28;20540;-78
2022/04/25 12:24:17;;;;;;;10.40;7.13;;;;;;;;;;5132287;28;20481;-79
2022/04/25 12:26:44;;;;;;;7.00;6.20;;;;;;;;;;5132612;28;20473;-78
2022/04/25 12:29:13;;;;;;;7.90;6.40;;;;;;;;;;5132814;28;20442;-77
2022/04/25 12:31:44;;;;;;;4.63;4.23;;;;;;;;;;5133348;28;20505;-78
2022/04/25 12:34:12;;;;;;;4.33;3.93;;;;;;;;;;5134477;28;20493;-79
2022/04/25 12:36:39;;;;;;;5.20;4.70;;;;;;;;;;5132256;28;20433;-79
2022/04/25 12:39:10;;;;;;;9.10;6.30;;;;;;;;;;5129904;28;20434;-78
2022/04/25 12:41:38;;;;;;;6.10;5.50;;;;;;;;;;5130650;28;20508;-78
2022/04/25 12:44:15;;;;;;;4.90;4.50;;;;;;;;;;5130883;28;20507;-79
2022/04/25 12:46:43;;;;;;;4.90;4.50;;;;;;;;;;5131750;28;20437;-78
2022/04/25 12:49:12;;;;;;;4.33;3.93;;;;;;;;;;5130838;28;20450;-80
2022/04/25 12:51:40;;;;;;;6.00;5.10;;;;;;;;;;5132021;28;20492;-77
2022/04/25 12:54:08;;;;;;;4.40;4.00;;;;;;;;;;5132534;28;20984;-76
2022/04/25 12:56:36;;;;;;;4.43;4.03;;;;;;;;;;5128493;28;21444;-76
2022/04/25 12:59:04;;;;;;;4.70;4.30;;;;;;;;;;5128780;28;20486;-82
2022/04/25 13:01:34;;;;;;;4.70;4.30;;;;;;;;;;5131525;28;20480;-80
2022/04/25 13:04:10;;;;;;;5.07;4.67;;;;;;;;;;5130225;28;20437;-79
2022/04/25 13:06:37;;;;;;;4.83;4.33;;;;;;;;;;5132340;28;20448;-77
2022/04/25 13:09:05;;;;;;;4.47;4.07;;;;;;;;;;5132316;28;20446;-77
2022/04/25 13:11:33;;;;;;;4.00;3.70;;;;;;;;;;5132129;28;20477;-78
2022/04/25 13:14:01;;;;;;;4.30;3.80;;;;;;;;;;5134044;27;20436;-78
2022/04/25 13:16:29;;;;;;;3.73;3.43;;;;;;;;;;5137741;27;21003;-83
2022/04/25 13:18:58;;;;;;;5.23;4.73;;;;;;;;;;5133950;27;20434;-78
2022/04/25 13:21:25;;;;;;;7.20;6.60;;;;;;;;;;5132644;27;21029;-78
2022/04/25 13:23:52;;;;;;;8.37;7.67;;;;;;;;;;5134832;27;20457;-80
2022/04/25 13:26:20;;;;;;;11.67;10.57;;;;;;;;;;5133589;27;21023;-74
2022/04/25 13:28:47;;;;;;;12.40;10.80;;;;;;;;;;5135433;27;20453;-76
2022/04/25 13:31:15;;;;;;;14.23;13.03;;;;;;;;;;5135949;27;20528;-76
2022/04/25 13:33:42;;;;;;;13.40;12.20;;;;;;;;;;5134703;27;20973;-76
2022/04/25 13:36:10;;;;;;;14.43;12.93;;;;;;;;;;5137222;27;20521;-76
2022/04/25 13:38:38;;;;;;;13.00;11.70;;;;;;;;;;5137169;27;20534;-76
2022/04/25 13:41:05;;;;;;;14.03;12.63;;;;;;;;;;5134481;27;20448;-76
2022/04/25 13:43:33;;;;;;;12.57;11.27;;;;;;;;;;5132794;27;20430;-76
2022/04/25 13:46:01;;;;;;;12.20;11.07;;;;;;;;;;5133469;27;20484;-74
2022/04/25 13:48:29;;;;;;;15.20;11.73;;;;;;;;;;5134842;27;20442;-76
2022/04/25 13:50:56;;;;;;;12.20;11.00;;;;;;;;;;5134609;27;20465;-76
2022/04/25 13:53:25;;;;;;;11.20;10.10;;;;;;;;;;5134842;27;20442;-76
2022/04/25 13:55:52;;;;;;;10.03;9.13;;;;;;;;;;5134506;27;20440;-75
2022/04/25 13:58:19;;;;;;;10.07;9.13;;;;;;;;;;5134645;27;20528;-76
2022/04/25 14:00:46;;;;;;;9.80;8.90;;;;;;;;;;5136862;27;20466;-78
2022/04/25 14:03:14;;;;;;;10.47;9.13;;;;;;;;;;5135090;27;20448;-79
2022/04/25 14:05:42;;;;;;;9.30;8.43;;;;;;;;;;5132151;27;20465;-77
2022/04/25 14:08:10;;;;;;;10.47;9.47;;;;;;;;;;5132764;27;20534;-77
2022/04/25 14:10:39;;;;;;;9.03;8.13;;;;;;;;;;5133036;27;20457;-76
2022/04/25 14:13:08;;;;;;;9.63;8.00;;;;;;;;;;5134321;27;20441;-77
2022/04/25 14:15:36;;;;;;;8.67;7.87;;;;;;;;;;5134517;27;20494;-78
2022/04/25 14:18:03;;;;;;;8.50;7.70;;;;;;;;;;5134801;27;20437;-76
2022/04/25 14:20:31;;;;;;;9.30;8.40;;;;;;;;;;5133866;27;20478;-77
2022/04/25 14:22:58;;;;;;;8.90;8.10;;;;;;;;;;5136225;27;20441;-76
2022/04/25 14:25:26;;;;;;;9.53;8.63;;;;;;;;;;5134921;27;20480;-77
2022/04/25 14:27:55;;;;;;;8.63;7.83;;;;;;;;;;5131070;27;20432;-75
2022/04/25 14:30:24;;;;;;;8.53;7.77;;;;;;;;;;5131958;27;20440;-77
2022/04/25 14:32:51;;;;;;;8.00;7.40;;;;;;;;;;5133987;27;20445;-76
2022/04/25 14:35:18;;;;;;;8.50;7.80;;;;;;;;;;5133720;27;20440;-76
2022/04/25 14:37:46;;;;;;;8.00;7.40;;;;;;;;;;5133702;27;20540;-76
2022/04/25 14:40:13;;;;;;;8.97;7.00;;;;;;;;;;5134333;27;20434;-77
2022/04/25 14:42:41;;;;;;;7.80;7.10;;;;;;;;;;5132989;27;20468;-76
2022/04/25 14:45:10;;;;;;;9.00;8.30;;;;;;;;;;5134999;27;20969;-76
2022/04/25 14:47:37;;;;;;;12.07;8.10;;;;;;;;;;5135167;27;20532;-76
2022/04/25 14:55:28;;;;;;;10.33;9.33;;;;;;;;;;5133222;27;20421;-75
2022/04/25 14:57:55;;;;;;;9.40;8.50;;;;;;;;;;5133336;27;20485;-76
2022/04/25 15:00:24;;;;;;;10.43;9.43;;;;;;;;;;5133237;27;20523;-76
2022/04/25 15:02:52;;;;;;;10.33;9.37;;;;;;;;;;5134028;27;20448;-75
2022/04/25 15:05:20;;;;;;;10.10;9.20;;;;;;;;;;5133780;27;20991;-77
2022/04/25 15:07:47;;;;;;;11.50;9.73;;;;;;;;;;5135507;27;20948;-77
2022/04/25 15:10:14;;;;;;;12.33;11.10;;;;;;;;;;5134535;27;20430;-76
2022/04/25 15:12:41;;;;;;;10.73;9.73;;;;;;;;;;5130588;27;20462;-77
2022/04/25 15:15:10;;;;;;;11.90;10.80;;;;;;;;;;5130956;27;20429;-76
2022/04/25 15:17:38;;;;;;;12.03;10.87;;;;;;;;;;5131868;27;20443;-75
2022/04/25 15:20:07;;;;;;;11.40;10.30;;;;;;;;;;5133212;27;20452;-75
2022/04/25 15:22:34;;;;;;;11.63;10.60;;;;;;;;;;5133114;27;20819;-77